本日のフライト

Leg45: SBBE to TNCM
FL410
A333
Dep 0652z / Arr 1021z

Leg46: TNCM to KMIA
IFR FL410
A333
Dep 1032z / Arr 1308z

KMIA 011153Z 08007KT 10SM FEW023 SCT060 SCT300 26/23 A3011 RMK TORNADO B1054 TORNADO E1056 AO2 RAB05E35 SLP195 P0006 60006 70006 T02610228 10278 20250 53016
今回は雨季も手伝ってろくな天候に恵まれなかったけど、最後がこれですか。HW授賞とおJAP様の名にかけて降りたけど。 🙁

それはそうと、IFRツアーはこれで終わり。次からはツアー200本ノックレグに入ります。

ちかれたびー 😎

コメントを残す

このサイトはスパムを低減するために Akismet を使っています。コメントデータの処理方法の詳細はこちらをご覧ください